createdAt,value
2023-02-17T00:02:56.804Z,72
2023-02-17T00:13:05.315Z,73
2023-02-17T00:23:13.744Z,72
2023-02-17T00:33:22.266Z,70
2023-02-17T00:43:30.749Z,73
2023-02-17T00:53:39.263Z,72
2023-02-17T01:03:47.835Z,71
2023-02-17T01:13:56.341Z,70
2023-02-17T01:23:57.299Z,69
2023-02-17T01:34:05.715Z,69
2023-02-17T01:44:27.668Z,68
2023-02-17T01:54:21.101Z,67
2023-02-17T02:04:17.105Z,67
2023-02-17T02:14:25.240Z,66
2023-02-17T02:24:35.393Z,65
2023-02-17T02:34:37.840Z,63
2023-02-17T02:44:38.216Z,64
2023-02-17T02:54:39.858Z,65
2023-02-17T03:04:43.842Z,65
2023-02-17T03:14:48.599Z,65
2023-02-17T03:24:56.703Z,64
2023-02-17T03:35:07.189Z,63
2023-02-17T03:45:07.003Z,63
2023-02-17T03:55:14.986Z,63
2023-02-17T04:05:25.239Z,63
2023-02-17T04:25:33.163Z,64
2023-02-17T04:35:41.804Z,64
2023-02-17T04:45:49.958Z,64
2023-02-17T04:55:59.609Z,65
2023-02-17T05:06:07.814Z,65
2023-02-17T05:16:15.957Z,65
2023-02-17T05:26:24.158Z,64
2023-02-17T05:36:32.223Z,64
2023-02-17T05:46:40.439Z,64
2023-02-17T05:56:48.733Z,64
2023-02-17T06:06:57.051Z,63
2023-02-17T06:17:05.645Z,63
2023-02-17T06:27:15.298Z,63
2023-02-17T06:37:24.572Z,63
2023-02-17T06:47:32.801Z,63
2023-02-17T06:57:44.767Z,63
2023-02-17T07:07:43.157Z,63
2023-02-17T07:17:51.423Z,64
2023-02-17T07:28:01.008Z,63
2023-02-17T07:38:00.049Z,63
2023-02-17T07:48:11.011Z,62
2023-02-17T07:58:14.718Z,61
2023-02-17T08:08:15.219Z,61
2023-02-17T08:18:23.385Z,57
2023-02-17T08:28:31.907Z,54
2023-02-17T08:38:40.079Z,52
2023-02-17T08:48:48.521Z,51
2023-02-17T08:58:57.070Z,49
2023-02-17T09:09:07.177Z,48
2023-02-17T09:19:15.728Z,46
2023-02-17T09:29:26.855Z,46
2023-02-17T09:39:25.661Z,45
2023-02-17T09:49:33.909Z,45
2023-02-17T09:59:42.106Z,44
2023-02-17T10:09:50.451Z,42
2023-02-17T10:19:58.866Z,41
2023-02-17T10:30:08.771Z,40
2023-02-17T10:40:16.997Z,39
2023-02-17T10:50:25.355Z,36
2023-02-17T11:00:33.948Z,35
2023-02-17T11:10:33.957Z,35
2023-02-17T11:20:42.238Z,33
2023-02-17T11:30:51.614Z,32
2023-02-17T11:41:01.701Z,32
2023-02-17T11:51:09.782Z,31
2023-02-17T12:01:19.342Z,31
2023-02-17T12:11:27.750Z,30
2023-02-17T12:21:38.636Z,29
2023-02-17T12:31:47.035Z,28
2023-02-17T12:41:55.468Z,28
2023-02-17T12:52:03.962Z,38
2023-02-17T13:02:12.483Z,39
2023-02-17T13:12:20.594Z,37
2023-02-17T13:22:28.879Z,38
2023-02-17T13:32:37.240Z,38
2023-02-17T13:42:45.384Z,39
2023-02-17T13:52:54.860Z,40
2023-02-17T14:03:06.221Z,38
2023-02-17T14:13:04.474Z,38
2023-02-17T14:23:04.840Z,38
2023-02-17T14:33:13.020Z,39
2023-02-17T14:43:16.354Z,39
2023-02-17T14:53:24.703Z,39
2023-02-17T15:03:26.777Z,39
2023-02-17T15:13:35.050Z,38
2023-02-17T15:23:43.318Z,38
2023-02-17T15:33:52.135Z,39
2023-02-17T15:44:02.207Z,40
2023-02-17T15:54:10.479Z,40
2023-02-17T16:04:19.607Z,40
2023-02-17T16:14:30.897Z,41
2023-02-17T16:24:29.647Z,41
2023-02-17T16:34:38.251Z,40
2023-02-17T16:44:38.597Z,40
2023-02-17T16:54:46.931Z,39
2023-02-17T17:04:54.994Z,39
2023-02-17T17:15:03.297Z,39
2023-02-17T17:25:18.522Z,40
2023-02-17T17:35:18.000Z,41
2023-02-17T17:45:27.481Z,41
2023-02-17T17:55:35.771Z,43
2023-02-17T18:05:44.178Z,43
2023-02-17T18:15:57.210Z,43
2023-02-17T18:26:00.479Z,43
2023-02-17T18:36:02.593Z,42
2023-02-17T18:46:24.646Z,42
2023-02-17T18:56:14.921Z,40
2023-02-17T19:06:19.586Z,40
2023-02-17T19:16:20.034Z,41
2023-02-17T19:26:27.557Z,41
2023-02-17T19:36:39.583Z,41
2023-02-17T19:46:57.371Z,41
2023-02-17T19:57:14.060Z,42
2023-02-17T20:07:12.298Z,43
2023-02-17T20:17:03.300Z,44
2023-02-17T20:27:43.452Z,44
2023-02-17T20:37:24.548Z,44
2023-02-17T20:47:33.414Z,45
2023-02-17T20:57:34.266Z,46
2023-02-17T21:07:38.531Z,46
2023-02-17T21:17:46.430Z,46
2023-02-17T21:27:56.716Z,48
2023-02-17T21:37:57.607Z,47
2023-02-17T21:47:59.680Z,49
2023-02-17T21:58:18.947Z,50
2023-02-17T22:08:14.780Z,50
2023-02-17T22:18:23.344Z,50
2023-02-17T22:28:32.861Z,51
2023-02-17T22:38:26.562Z,52
2023-02-17T22:48:29.402Z,52
2023-02-17T22:58:38.104Z,53
2023-02-17T23:08:40.208Z,53
2023-02-17T23:18:50.431Z,53
2023-02-17T23:28:59.539Z,54
2023-02-17T23:38:59.369Z,54
2023-02-17T23:49:09.900Z,53
2023-02-17T23:59:19.397Z,52
